Overview Statistics Trail Chart Weather Telemetry Raw packets
 

This is the latest recevied weather packets stored in our database for station/object E24BD-10. If no packets are shown the sender has not sent any weather packets the latest 10 day(s).

<< 14 15 16 17 18 19 20 >>
Time Temp. Humidity Pressure Rain* Wind** Luminosity Snow
1777407764 34.44° C 56% 996 hPa - - 0 W/m² -
1777406839 35° C 55% 996 hPa - - 0 W/m² -
1777405915 35° C 55% 996 hPa - - 0 W/m² -
1777404991 35° C 55% 996 hPa - - 0 W/m² -
1777404066 35° C 55% 997 hPa - - 0 W/m² -
1777403141 35° C 54% 997 hPa - - 0 W/m² -
1777402217 35° C 55% 997 hPa - - 0 W/m² -
1777401292 35° C 54% 997 hPa - - 0 W/m² -
1777400367 35° C 54% 997 hPa - - 0 W/m² -
1777399443 35° C 54% 997 hPa - - 0 W/m² -
1777398519 35° C 54% 998 hPa - - 0 W/m² -
1777397594 35.56° C 53% 997 hPa - - 0 W/m² -
1777396670 35° C 53% 998 hPa - - 0 W/m² -
1777395745 35° C 54% 998 hPa - - 0 W/m² -
1777394821 35° C 54% 998 hPa - - 0 W/m² -
1777393896 35° C 54% 998 hPa - - 0 W/m² -
1777392972 35° C 54% 998 hPa - - 0 W/m² -
1777392048 35.56° C 54% 998 hPa - - 0 W/m² -
1777391123 35.56° C 53% 998 hPa - - 0 W/m² -
1777390199 35.56° C 53% 998 hPa - - 0 W/m² -
1777389274 36.11° C 53% 998 hPa - - 0 W/m² -
1777388349 35° C 56% 998 hPa - - 0 W/m² -
1777387381 34.44° C 58% 998 hPa - - 0 W/m² -
1777386457 36.67° C 50% 997 hPa - - 0 W/m² -
1777385533 36.67° C 51% 997 hPa - - 0 W/m² -

* Rain since midnight (hover to see other rain measurements)
** Current wind speed in m/s (hover to see current wind gust speed)